Cedar Creek Observed Data For Previous 48 Hours

Caption
Day and Hour Reservoir Elevation (behind dam)* Tailwater Elevation (below dam)* Average Hourly Discharge*
6/20/2018 1 AM CDT 580.36 499.46 117
6/20/2018 2 AM CDT 580.36 499.45 117
6/20/2018 3 AM CDT 580.36 499.46 117
6/20/2018 4 AM CDT 580.36 499.46 117
6/20/2018 5 AM CDT 580.36 499.45 117
6/20/2018 6 AM CDT 580.35 499.45 116
6/20/2018 7 AM CDT 580.35 499.45 115
6/20/2018 8 AM CDT 580.35 499.45 115
6/20/2018 9 AM CDT 580.35 499.44 115
6/20/2018 10 AM CDT 580.35 499.44 115
6/20/2018 11 AM CDT 580.35 499.45 115
6/20/2018 12 PM CDT 580.35 499.44 115
6/20/2018 1 PM CDT 580.35 499.44 115
6/20/2018 2 PM CDT 580.34 499.44 114
6/20/2018 3 PM CDT 580.34 499.44 113
6/20/2018 4 PM CDT 580.35 499.43 114
6/20/2018 5 PM CDT 580.34 499.44 114
6/20/2018 6 PM CDT 580.33 499.43 113
6/20/2018 7 PM CDT 580.34 499.43 113
6/20/2018 8 PM CDT 580.34 499.43 113
6/20/2018 9 PM CDT 580.34 499.44 113
6/20/2018 10 PM CDT 580.35 499.44 114
6/20/2018 11 PM CDT 580.34 499.43 114
6/21/2018 12 AM CDT 580.35 499.43 114
6/21/2018 1 AM CDT 580.34 499.43 114
6/21/2018 2 AM CDT 580.33 499.43 113
6/21/2018 3 AM CDT 580.35 499.43 113
6/21/2018 4 AM CDT 580.36 499.44 116
6/21/2018 5 AM CDT 580.35 499.44 116
6/21/2018 6 AM CDT 580.35 499.45 115
6/21/2018 7 AM CDT 580.37 499.45 117
6/21/2018 8 AM CDT 580.38 499.48 121
6/21/2018 9 AM CDT 580.39 499.49 123
6/21/2018 10 AM CDT 580.39 499.49 124
6/21/2018 11 AM CDT 580.38 499.49 123
6/21/2018 12 PM CDT 580.38 499.49 122
6/21/2018 1 PM CDT 580.38 499.48 122
6/21/2018 2 PM CDT 580.38 499.48 122
6/21/2018 3 PM CDT 580.38 499.48 122
6/21/2018 4 PM CDT 580.38 499.47 122
6/21/2018 5 PM CDT 580.38 499.48 122
6/21/2018 6 PM CDT 580.38 499.47 122
6/21/2018 7 PM CDT 580.38 499.48 122
6/21/2018 8 PM CDT 580.38 499.48 122
6/21/2018 9 PM CDT 580.42 499.51 126
6/21/2018 10 PM CDT 580.41 499.59 129
6/21/2018 11 PM CDT 580.47 499.66 134

Elevations are in feet above sea level. Discharges are in cubic feet per second and are reported at the end of the hour.